createdAt,value
2022-10-30T09:26:36.899Z,95544.87
2022-10-30T10:04:37.903Z,95500.30
2022-10-30T10:07:31.879Z,95497.58
2022-10-30T10:10:05.386Z,95491.21
2022-10-30T10:12:40.749Z,95489.46
2022-10-30T10:15:31.926Z,95486.61
2022-10-30T10:18:02.774Z,95481.83
2022-10-30T10:20:35.265Z,95480.48
2022-10-30T10:23:11.934Z,95475.10
2022-10-30T10:25:43.912Z,95473.17
2022-10-30T10:28:36.854Z,95470.24
2022-10-30T10:31:21.731Z,95468.58
2022-10-30T10:34:19.429Z,95464.87
2022-10-30T10:37:04.824Z,95460.40
2022-10-30T10:39:31.479Z,95456.81
2022-10-30T10:42:21.912Z,95452.91
2022-10-30T10:44:54.513Z,95444.45
2022-10-30T10:47:54.552Z,95442.14
2022-10-30T10:50:34.203Z,95438.97
2022-10-30T10:53:09.380Z,95437.41
2022-10-30T10:55:39.173Z,95431.34
2022-10-30T10:58:26.388Z,95430.29
2022-10-30T11:00:56.206Z,95426.45
2022-10-30T11:03:36.864Z,95424.42
2022-10-30T11:06:26.919Z,95424.23
2022-10-30T11:09:01.701Z,95420.46
2022-10-30T11:11:28.619Z,95419.31
2022-10-30T11:13:56.294Z,95414.66
2022-10-30T11:17:10.965Z,95412.66
2022-10-30T11:19:37.833Z,95411.34
2022-10-30T11:22:21.398Z,95406.17
2022-10-30T11:24:48.052Z,95401.34
2022-10-30T11:27:24.025Z,95402.85
2022-10-30T11:29:54.818Z,95400.95
2022-10-30T11:32:26.639Z,95396.84
2022-10-30T11:35:08.773Z,95397.48
2022-10-30T11:37:38.621Z,95391.81
2022-10-30T11:40:05.588Z,95386.86
2022-10-30T11:42:32.893Z,95385.21
2022-10-30T11:45:00.837Z,95384.38
2022-10-30T11:50:06.463Z,95378.59
2022-10-30T11:52:40.953Z,95371.98
2022-10-30T11:55:26.551Z,95361.45
2022-10-30T11:57:57.444Z,95363.13
2022-10-30T12:00:27.640Z,95358.42
2022-10-30T12:02:57.221Z,95359.13
2022-10-30T12:05:27.446Z,95358.01
2022-10-30T12:08:11.080Z,95355.58
2022-10-30T12:10:46.302Z,95350.73
2022-10-30T12:13:18.571Z,95352.54
2022-10-30T12:15:48.571Z,95346.23
2022-10-30T12:18:25.907Z,95342.99
2022-10-30T12:20:56.460Z,95338.56
2022-10-30T12:23:26.081Z,95334.30
2022-10-30T12:25:55.542Z,95328.55
2022-10-30T12:28:29.573Z,95327.56
2022-10-30T12:31:05.330Z,95327.96
2022-10-30T12:33:39.619Z,95323.39
2022-10-30T12:36:22.985Z,95318.28
2022-10-30T12:38:56.622Z,95320.84
2022-10-30T12:41:29.565Z,95318.74
2022-10-30T12:44:19.637Z,95311.40
2022-10-30T12:46:48.932Z,95316.46
2022-10-30T12:49:42.234Z,95316.11
2022-10-30T12:52:33.643Z,95315.19
2022-10-30T12:55:18.728Z,95313.25
2022-10-30T12:58:02.846Z,95310.48
2022-10-30T13:00:37.111Z,95306.61
2022-10-30T13:03:28.273Z,95305.77
2022-10-30T13:05:57.743Z,95302.89
2022-10-30T13:08:51.195Z,95299.17
2022-10-30T13:11:49.178Z,95299.92
2022-10-30T13:15:06.151Z,95299.55
2022-10-30T13:17:32.879Z,95300.27
2022-10-30T13:20:01.243Z,95299.05
2022-10-30T13:22:46.885Z,95293.90
2022-10-30T13:25:22.260Z,95297.06
2022-10-30T13:27:56.617Z,95293.89
2022-10-30T13:30:29.855Z,95294.27
2022-10-30T13:33:19.954Z,95299.26
2022-10-30T13:35:58.474Z,95298.15
2022-10-30T13:38:40.389Z,95300.63
2022-10-30T13:41:19.424Z,95296.98
2022-10-30T13:44:24.934Z,95297.23
2022-10-30T13:47:16.621Z,95298.88
2022-10-30T13:50:01.134Z,95299.31
2022-10-30T13:52:30.718Z,95300.69
2022-10-30T13:55:03.430Z,95296.02
2022-10-30T13:57:42.786Z,95300.95
2022-10-30T14:00:19.640Z,95300.81
2022-10-30T14:41:41.073Z,95303.36
2022-10-30T14:44:24.983Z,95302.27
2022-10-30T14:47:18.002Z,95306.59
2022-10-30T14:50:31.772Z,95304.69
2022-10-30T15:16:41.288Z,95306.65
2022-10-30T15:23:04.126Z,95304.98
2022-10-30T15:25:46.078Z,95300.25
2022-10-30T15:28:20.411Z,95300.79
2022-10-30T15:31:20.978Z,95304.33
2022-10-30T15:33:47.771Z,95302.67
2022-10-30T15:36:23.381Z,95303.89
2022-10-30T15:39:18.680Z,95302.50
2022-10-30T15:41:45.379Z,95302.76
2022-10-30T15:44:33.776Z,95307.21
2022-10-30T15:47:02.688Z,95307.71
2022-10-30T15:49:33.275Z,95306.45
2022-10-30T15:52:04.841Z,95307.45
2022-10-30T15:54:33.639Z,95310.41
2022-10-30T15:57:36.557Z,95315.71
2022-10-30T16:00:00.191Z,95314.42
2022-10-30T16:02:51.039Z,95316.73
2022-10-30T16:05:23.164Z,95318.01
2022-10-30T16:07:52.729Z,95320.36
2022-10-30T16:10:19.474Z,95320.56
2022-10-30T16:12:46.421Z,95324.13
2022-10-30T16:15:39.207Z,95325.69
2022-10-30T16:18:18.889Z,95331.28
2022-10-30T16:20:50.343Z,95331.75
2022-10-30T16:23:59.724Z,95330.13
2022-10-30T16:26:37.733Z,95335.41
2022-10-30T16:29:23.034Z,95338.04
2022-10-30T16:31:50.482Z,95337.70
2022-10-30T16:34:38.700Z,95342.23
2022-10-30T16:37:07.104Z,95343.21
2022-10-30T16:39:35.032Z,95343.63
2022-10-30T16:42:18.720Z,95345.80
2022-10-30T16:44:46.430Z,95347.36
2022-10-30T16:47:19.154Z,95350.25
2022-10-30T16:49:57.336Z,95352.81
2022-10-30T16:52:32.668Z,95355.52
2022-10-30T16:54:59.349Z,95357.83
2022-10-30T16:57:31.397Z,95362.20
2022-10-30T17:00:00.847Z,95358.98
2022-10-30T17:02:32.759Z,95356.60
2022-10-30T17:05:27.860Z,95353.92
2022-10-30T17:08:00.207Z,95357.00
2022-10-30T17:10:42.880Z,95362.76
2022-10-30T17:13:37.723Z,95364.90
2022-10-30T17:16:23.410Z,95368.30
2022-10-30T17:19:00.002Z,95371.45
2022-10-30T17:21:36.864Z,95375.20
2022-10-30T17:24:04.228Z,95379.12
2022-10-30T17:26:41.449Z,95378.19
2022-10-30T17:29:38.539Z,95380.27
2022-10-30T17:32:12.425Z,95384.55
2022-10-30T17:34:39.324Z,95387.08
2022-10-30T17:37:06.173Z,95390.05
2022-10-30T17:39:33.507Z,95390.48
2022-10-30T17:42:02.362Z,95394.84
2022-10-30T17:44:33.217Z,95396.05
2022-10-30T17:47:09.296Z,95401.77
2022-10-30T17:49:42.701Z,95400.27
2022-10-30T17:52:19.425Z,95402.79
2022-10-30T17:54:46.192Z,95401.56
2022-10-30T17:57:15.190Z,95399.19
2022-10-30T17:59:44.769Z,95402.18
2022-10-30T18:02:20.769Z,95401.54
2022-10-30T18:04:48.570Z,95396.42
2022-10-30T18:07:17.189Z,95394.50
2022-10-30T18:09:47.094Z,95393.33
2022-10-30T18:12:17.060Z,95392.54
2022-10-30T18:14:45.834Z,95396.13
2022-10-30T18:17:12.544Z,95395.30
2022-10-30T18:19:39.360Z,95394.38
2022-10-30T18:22:06.416Z,95395.09
2022-10-30T18:24:33.219Z,95393.65
2022-10-30T18:27:00.011Z,95391.51
2022-10-30T18:29:26.735Z,95388.58
2022-10-30T18:31:53.481Z,95385.09
2022-10-30T18:34:21.838Z,95383.41
2022-10-30T18:36:49.048Z,95385.34
2022-10-30T18:39:15.899Z,95381.81
2022-10-30T18:41:45.331Z,95386.23
2022-10-30T18:44:15.221Z,95389.71
2022-10-30T18:46:42.294Z,95385.72
2022-10-30T18:49:09.079Z,95386.27
2022-10-30T18:51:35.941Z,95389.67
2022-10-30T18:54:02.950Z,95394.73
2022-10-30T18:56:32.850Z,95399.73
2022-10-30T18:59:13.159Z,95401.75
2022-10-30T19:01:59.251Z,95399.95
2022-10-30T19:04:26.028Z,95402.52
2022-10-30T19:06:52.715Z,95400.08
2022-10-30T19:09:19.533Z,95401.65
2022-10-30T19:11:46.344Z,95406.27
2022-10-30T19:14:14.069Z,95405.14
2022-10-30T19:16:41.023Z,95402.36
2022-10-30T19:19:07.924Z,95397.48
2022-10-30T19:21:35.520Z,95403.99
2022-10-30T19:24:03.278Z,95404.20
2022-10-30T19:26:30.105Z,95403.94
2022-10-30T19:28:56.816Z,95399.63
2022-10-30T19:31:32.926Z,95404.05
2022-10-30T19:33:59.672Z,95402.65
2022-10-30T19:36:30.132Z,95396.61
2022-10-30T19:38:56.941Z,95397.90
2022-10-30T19:41:25.096Z,95392.38
2022-10-30T19:43:53.358Z,95392.02
